Terminal Aerodrome Forecast
Issued by NWS Greer, SC

Home | Current Version | Previous Version | Text Only | Print | Product List | Glossary On
Versions: 1 2 3 4 5 6 7 8 9 10 11 12 13 14 15 16 17 18 19 20 21 22 23 24 25 26 27 28 29 30 31 32 33 34 35 36 37 38 39 40 41 42 43 44
000
FTUS42 KGSP 211459 AAA
TAFCLT
TAF AMD
KCLT 211459Z 2115/2212 10008KT P6SM BKN250
     FM212200 14007KT P6SM BKN050 OVC250
     FM220400 10006KT P6SM VCSH OVC025
     FM220700 08003KT P6SM OVC010 PROB30 2207/2208 4SM -SHRA OVC003
     FM220800 07003KT P6SM OVC003 PROB30 2210/2212 1SM -SHRA=

USA.gov is the U.S. government's official web portal to all federal, state and local government web resources and services.